sensor_id;sensor_type;location;lat;lon;timestamp;pressure;altitude;pressure_sealevel;temperature;humidity
56518;BME280;42419;48.760;2.322;2023-01-25T00:01:42;102688.38;;;22.87;36.20
56518;BME280;42419;48.760;2.322;2023-01-25T00:04:07;102675.09;;;22.79;36.29
56518;BME280;42419;48.760;2.322;2023-01-25T00:06:33;102693.75;;;22.85;36.20
56518;BME280;42419;48.760;2.322;2023-01-25T00:08:58;102689.34;;;22.82;36.07
56518;BME280;42419;48.760;2.322;2023-01-25T00:11:23;102680.41;;;22.80;35.79
56518;BME280;42419;48.760;2.322;2023-01-25T00:13:52;102695.59;;;22.84;35.60
56518;BME280;42419;48.760;2.322;2023-01-25T00:16:17;102693.75;;;22.85;35.69
56518;BME280;42419;48.760;2.322;2023-01-25T00:18:42;102685.75;;;22.83;35.73
56518;BME280;42419;48.760;2.322;2023-01-25T00:21:20;102683.97;;;22.82;35.69
56518;BME280;42419;48.760;2.322;2023-01-25T00:23:46;102680.38;;;22.83;35.28
56518;BME280;42419;48.760;2.322;2023-01-25T00:26:12;102680.38;;;22.83;35.42
56518;BME280;42419;48.760;2.322;2023-01-25T00:28:37;102685.69;;;22.87;35.81
56518;BME280;42419;48.760;2.322;2023-01-25T00:31:04;102680.31;;;22.87;35.67
56518;BME280;42419;48.760;2.322;2023-01-25T00:36:02;102677.59;;;22.88;35.70
56518;BME280;42419;48.760;2.322;2023-01-25T00:38:46;102676.72;;;22.88;35.24
56518;BME280;42419;48.760;2.322;2023-01-25T00:41:11;102677.63;;;22.87;35.50
56518;BME280;42419;48.760;2.322;2023-01-25T00:43:37;102676.72;;;22.86;35.17
56518;BME280;42419;48.760;2.322;2023-01-25T00:46:02;102672.22;;;22.88;35.14
56518;BME280;42419;48.760;2.322;2023-01-25T00:48:27;102678.53;;;22.85;35.03
56518;BME280;42419;48.760;2.322;2023-01-25T00:50:53;102674.91;;;22.88;35.23
56518;BME280;42419;48.760;2.322;2023-01-25T00:53:18;102672.25;;;22.87;34.89
56518;BME280;42419;48.760;2.322;2023-01-25T00:55:52;102667.84;;;22.84;35.26
56518;BME280;42419;48.760;2.322;2023-01-25T00:58:17;102666.88;;;22.87;35.07
56518;BME280;42419;48.760;2.322;2023-01-25T01:00:43;102660.72;;;22.81;35.05
56518;BME280;42419;48.760;2.322;2023-01-25T01:03:09;102672.25;;;22.87;34.84
56518;BME280;42419;48.760;2.322;2023-01-25T01:05:34;102656.25;;;22.80;35.00
56518;BME280;42419;48.760;2.322;2023-01-25T01:08:01;102667.78;;;22.85;34.94
56518;BME280;42419;48.760;2.322;2023-01-25T01:10:26;102671.41;;;22.84;34.97
56518;BME280;42419;48.760;2.322;2023-01-25T01:12:52;102674.09;;;22.84;34.90
56518;BME280;42419;48.760;2.322;2023-01-25T01:15:17;102665.16;;;22.84;34.53
56518;BME280;42419;48.760;2.322;2023-01-25T01:17:42;102661.59;;;22.82;34.56
56518;BME280;42419;48.760;2.322;2023-01-25T01:20:08;102664.25;;;22.83;34.45
56518;BME280;42419;48.760;2.322;2023-01-25T01:22:33;102664.28;;;22.82;34.80
56518;BME280;42419;48.760;2.322;2023-01-25T01:24:59;102662.47;;;22.82;34.74
56518;BME280;42419;48.760;2.322;2023-01-25T01:27:27;102661.56;;;22.83;34.56
56518;BME280;42419;48.760;2.322;2023-01-25T01:29:52;102666.91;;;22.85;34.51
56518;BME280;42419;48.760;2.322;2023-01-25T01:32:17;102660.69;;;22.83;34.31
56518;BME280;42419;48.760;2.322;2023-01-25T01:34:42;102658.00;;;22.83;34.29
56518;BME280;42419;48.760;2.322;2023-01-25T01:37:08;102654.53;;;22.76;34.24
56518;BME280;42419;48.760;2.322;2023-01-25T01:39:34;102663.34;;;22.84;34.31
56518;BME280;42419;48.760;2.322;2023-01-25T01:41:59;102620.88;;;22.60;34.27
56518;BME280;42419;48.760;2.322;2023-01-25T01:47:16;102660.72;;;22.81;34.16
56518;BME280;42419;48.760;2.322;2023-01-25T01:49:46;102672.34;;;22.82;34.11
56518;BME280;42419;48.760;2.322;2023-01-25T01:52:16;102675.03;;;22.82;34.30
56518;BME280;42419;48.760;2.322;2023-01-25T01:57:15;102672.34;;;22.82;33.77
56518;BME280;42419;48.760;2.322;2023-01-25T02:02:21;102662.56;;;22.78;34.29
56518;BME280;42419;48.760;2.322;2023-01-25T02:04:48;102667.94;;;22.79;34.29
56518;BME280;42419;48.760;2.322;2023-01-25T02:07:18;102669.66;;;22.82;33.95
56518;BME280;42419;48.760;2.322;2023-01-25T02:09:45;102671.53;;;22.77;33.82
56518;BME280;42419;48.760;2.322;2023-01-25T02:12:12;102677.69;;;22.83;34.17
56518;BME280;42419;48.760;2.322;2023-01-25T02:14:45;102680.41;;;22.80;33.70
56518;BME280;42419;48.760;2.322;2023-01-25T02:17:12;102676.81;;;22.81;33.88
56518;BME280;42419;48.760;2.322;2023-01-25T02:22:10;102676.00;;;22.79;33.80
56518;BME280;42419;48.760;2.322;2023-01-25T02:24:45;102687.63;;;22.80;33.80
56518;BME280;42419;48.760;2.322;2023-01-25T02:27:13;102656.47;;;22.70;33.79
56518;BME280;42419;48.760;2.322;2023-01-25T02:29:39;102672.41;;;22.79;33.82
56518;BME280;42419;48.760;2.322;2023-01-25T02:32:05;102682.19;;;22.81;33.83
56518;BME280;42419;48.760;2.322;2023-01-25T02:34:30;102669.75;;;22.77;33.68
56518;BME280;42419;48.760;2.322;2023-01-25T02:36:56;102684.84;;;22.84;33.85
56518;BME280;42419;48.760;2.322;2023-01-25T02:39:22;102682.16;;;22.84;33.64
56518;BME280;42419;48.760;2.322;2023-01-25T02:41:51;102658.28;;;22.69;33.35
56518;BME280;42419;48.760;2.322;2023-01-25T02:46:43;102695.59;;;22.83;33.50
56518;BME280;42419;48.760;2.322;2023-01-25T02:49:09;102681.28;;;22.82;33.55
56518;BME280;42419;48.760;2.322;2023-01-25T02:51:37;102660.91;;;22.72;33.53
56518;BME280;42419;48.760;2.322;2023-01-25T02:54:05;102674.13;;;22.81;33.36
56518;BME280;42419;48.760;2.322;2023-01-25T02:56:31;102679.47;;;22.84;33.62
56518;BME280;42419;48.760;2.322;2023-01-25T02:58:57;102654.69;;;22.70;33.62
56518;BME280;42419;48.760;2.322;2023-01-25T03:01:23;102676.81;;;22.83;33.44
56518;BME280;42419;48.760;2.322;2023-01-25T03:03:48;102673.22;;;22.82;33.49
56518;BME280;42419;48.760;2.322;2023-01-25T03:06:14;102664.31;;;22.80;33.29
56518;BME280;42419;48.760;2.322;2023-01-25T03:08:39;102666.94;;;22.83;33.05
56518;BME280;42419;48.760;2.322;2023-01-25T03:11:06;102670.53;;;22.82;33.33
56518;BME280;42419;48.760;2.322;2023-01-25T03:13:33;102662.47;;;22.82;33.05
56518;BME280;42419;48.760;2.322;2023-01-25T03:16:04;102664.25;;;22.83;33.33
56518;BME280;42419;48.760;2.322;2023-01-25T03:18:30;102666.06;;;22.83;33.22
56518;BME280;42419;48.760;2.322;2023-01-25T03:20:55;102668.75;;;22.83;33.21
56518;BME280;42419;48.760;2.322;2023-01-25T03:23:21;102670.53;;;22.82;33.26
56518;BME280;42419;48.760;2.322;2023-01-25T03:25:46;102675.00;;;22.83;33.10
56518;BME280;42419;48.760;2.322;2023-01-25T03:28:12;102651.13;;;22.70;33.33
56518;BME280;42419;48.760;2.322;2023-01-25T03:30:37;102669.66;;;22.80;33.03
56518;BME280;42419;48.760;2.322;2023-01-25T03:33:03;102675.00;;;22.83;32.98
56518;BME280;42419;48.760;2.322;2023-01-25T03:35:29;102661.69;;;22.77;33.17
56518;BME280;42419;48.760;2.322;2023-01-25T03:37:54;102669.66;;;22.82;32.92
56518;BME280;42419;48.760;2.322;2023-01-25T03:40:19;102667.00;;;22.80;33.36
56518;BME280;42419;48.760;2.322;2023-01-25T03:42:45;102668.75;;;22.81;32.99
56518;BME280;42419;48.760;2.322;2023-01-25T03:45:10;102663.41;;;22.81;32.90
56518;BME280;42419;48.760;2.322;2023-01-25T03:47:39;102653.63;;;22.77;32.86
56518;BME280;42419;48.760;2.322;2023-01-25T03:50:04;102656.22;;;22.82;32.77
56518;BME280;42419;48.760;2.322;2023-01-25T03:52:30;102658.91;;;22.82;32.93
56518;BME280;42419;48.760;2.322;2023-01-25T03:55:04;102627.06;;;22.64;32.73
56518;BME280;42419;48.760;2.322;2023-01-25T03:57:29;102657.13;;;22.82;33.02
56518;BME280;42419;48.760;2.322;2023-01-25T03:59:55;102627.88;;;22.67;32.79
56518;BME280;42419;48.760;2.322;2023-01-25T04:02:20;102656.25;;;22.80;32.92
56518;BME280;42419;48.760;2.322;2023-01-25T04:04:45;102646.47;;;22.76;32.99
56518;BME280;42419;48.760;2.322;2023-01-25T04:07:11;102658.03;;;22.81;33.00
56518;BME280;42419;48.760;2.322;2023-01-25T04:09:36;102652.63;;;22.83;32.48
56518;BME280;42419;48.760;2.322;2023-01-25T04:12:02;102650.84;;;22.82;32.94
56518;BME280;42419;48.760;2.322;2023-01-25T04:14:27;102658.00;;;22.83;32.61
56518;BME280;42419;48.760;2.322;2023-01-25T04:16:52;102649.06;;;22.81;32.54
56518;BME280;42419;48.760;2.322;2023-01-25T04:19:17;102653.53;;;22.83;32.91
56518;BME280;42419;48.760;2.322;2023-01-25T04:21:43;102661.56;;;22.83;32.72
56518;BME280;42419;48.760;2.322;2023-01-25T04:24:08;102639.38;;;22.74;32.56
56518;BME280;42419;48.760;2.322;2023-01-25T04:26:33;102659.81;;;22.82;32.51
56518;BME280;42419;48.760;2.322;2023-01-25T04:28:59;102659.78;;;22.84;32.39
56518;BME280;42419;48.760;2.322;2023-01-25T04:31:24;102660.69;;;22.83;32.34
56518;BME280;42419;48.760;2.322;2023-01-25T04:33:49;102655.28;;;22.84;32.42
56518;BME280;42419;48.760;2.322;2023-01-25T04:36:14;102654.44;;;22.81;32.30
56518;BME280;42419;48.760;2.322;2023-01-25T04:38:40;102658.88;;;22.83;32.36
56518;BME280;42419;48.760;2.322;2023-01-25T04:41:06;102663.34;;;22.84;32.31
56518;BME280;42419;48.760;2.322;2023-01-25T04:43:31;102650.84;;;22.83;32.23
56518;BME280;42419;48.760;2.322;2023-01-25T04:45:57;102662.41;;;22.85;32.41
56518;BME280;42419;48.760;2.322;2023-01-25T04:48:24;102648.16;;;22.83;32.14
56518;BME280;42419;48.760;2.322;2023-01-25T04:50:50;102665.16;;;22.82;32.59
56518;BME280;42419;48.760;2.322;2023-01-25T04:53:15;102641.25;;;22.70;32.43
56518;BME280;42419;48.760;2.322;2023-01-25T04:55:44;102649.91;;;22.84;32.19
56518;BME280;42419;48.760;2.322;2023-01-25T04:58:10;102653.44;;;22.87;32.36
56518;BME280;42419;48.760;2.322;2023-01-25T05:00:35;102650.75;;;22.87;32.29
56518;BME280;42419;48.760;2.322;2023-01-25T05:03:02;102652.53;;;22.88;32.47
56518;BME280;42419;48.760;2.322;2023-01-25T05:05:27;102646.25;;;22.89;32.05
56518;BME280;42419;48.760;2.322;2023-01-25T05:07:53;102648.97;;;22.85;32.23
56518;BME280;42419;48.760;2.322;2023-01-25T05:10:18;102637.31;;;22.87;32.18
56518;BME280;42419;48.760;2.322;2023-01-25T05:12:43;102641.78;;;22.89;32.10
56518;BME280;42419;48.760;2.322;2023-01-25T05:15:09;102636.41;;;22.88;32.09
56518;BME280;42419;48.760;2.322;2023-01-25T05:17:34;102637.31;;;22.87;31.85
56518;BME280;42419;48.760;2.322;2023-01-25T05:20:02;102644.47;;;22.88;32.02
56518;BME280;42419;48.760;2.322;2023-01-25T05:22:28;102643.59;;;22.87;31.85
56518;BME280;42419;48.760;2.322;2023-01-25T05:24:53;102619.69;;;22.73;31.93
56518;BME280;42419;48.760;2.322;2023-01-25T05:27:19;102642.69;;;22.87;32.10
56518;BME280;42419;48.760;2.322;2023-01-25T05:29:45;102613.41;;;22.74;32.11
56518;BME280;42419;48.760;2.322;2023-01-25T05:34:38;102613.44;;;22.73;32.00
56518;BME280;42419;48.760;2.322;2023-01-25T05:37:05;102628.47;;;22.83;32.07
56518;BME280;42419;48.760;2.322;2023-01-25T05:39:31;102624.88;;;22.82;32.07
56518;BME280;42419;48.760;2.322;2023-01-25T05:41:56;102636.44;;;22.86;31.88
56518;BME280;42419;48.760;2.322;2023-01-25T05:44:22;102624.88;;;22.82;31.72
56518;BME280;42419;48.760;2.322;2023-01-25T05:46:48;102608.97;;;22.72;31.63
56518;BME280;42419;48.760;2.322;2023-01-25T05:49:13;102638.25;;;22.85;31.76
56518;BME280;42419;48.760;2.322;2023-01-25T05:51:39;102633.81;;;22.84;31.69
56518;BME280;42419;48.760;2.322;2023-01-25T05:54:05;102626.69;;;22.80;31.76
56518;BME280;42419;48.760;2.322;2023-01-25T05:56:31;102623.09;;;22.81;32.05
56518;BME280;42419;48.760;2.322;2023-01-25T05:58:58;102624.88;;;22.84;31.78
56518;BME280;42419;48.760;2.322;2023-01-25T06:01:24;102615.19;;;22.75;31.90
56518;BME280;42419;48.760;2.322;2023-01-25T06:03:49;102627.56;;;22.84;31.53
56518;BME280;42419;48.760;2.322;2023-01-25T06:06:15;102626.66;;;22.83;31.62
56518;BME280;42419;48.760;2.322;2023-01-25T06:08:40;102628.44;;;22.84;31.79
56518;BME280;42419;48.760;2.322;2023-01-25T06:11:10;102623.09;;;22.83;31.63
56518;BME280;42419;48.760;2.322;2023-01-25T06:13:36;102628.44;;;22.84;31.45
56518;BME280;42419;48.760;2.322;2023-01-25T06:16:02;102626.59;;;22.85;31.59
56518;BME280;42419;48.760;2.322;2023-01-25T06:18:29;102628.44;;;22.84;31.55
56518;BME280;42419;48.760;2.322;2023-01-25T06:20:56;102630.19;;;22.85;31.64
56518;BME280;42419;48.760;2.322;2023-01-25T06:23:21;102621.28;;;22.83;31.54
56518;BME280;42419;48.760;2.322;2023-01-25T06:25:46;102630.19;;;22.85;31.72
56518;BME280;42419;48.760;2.322;2023-01-25T06:28:12;102620.31;;;22.86;31.93
56518;BME280;42419;48.760;2.322;2023-01-25T06:30:37;102621.22;;;22.87;31.72
56518;BME280;42419;48.760;2.322;2023-01-25T06:33:02;102623.81;;;22.90;31.34
56518;BME280;42419;48.760;2.322;2023-01-25T06:35:30;102575.16;;;22.63;31.93
56518;BME280;42419;48.760;2.322;2023-01-25T06:37:56;102618.41;;;22.93;31.90
56518;BME280;42419;48.760;2.322;2023-01-25T06:40:22;102621.03;;;22.96;31.71
56518;BME280;42419;48.760;2.322;2023-01-25T06:42:47;102621.88;;;22.98;31.82
56518;BME280;42419;48.760;2.322;2023-01-25T06:45:13;102611.09;;;22.99;31.78
56518;BME280;42419;48.760;2.322;2023-01-25T06:47:39;102613.81;;;22.98;31.55
56518;BME280;42419;48.760;2.322;2023-01-25T06:50:04;102602.28;;;22.93;32.03
56518;BME280;42419;48.760;2.322;2023-01-25T06:52:30;102609.31;;;22.98;32.00
56518;BME280;42419;48.760;2.322;2023-01-25T06:54:56;102609.31;;;22.98;31.86
56518;BME280;42419;48.760;2.322;2023-01-25T06:57:21;102611.09;;;22.99;31.70
56518;BME280;42419;48.760;2.322;2023-01-25T06:59:47;102608.38;;;23.01;31.52
56518;BME280;42419;48.760;2.322;2023-01-25T07:02:15;102603.91;;;23.00;31.48
56518;BME280;42419;48.760;2.322;2023-01-25T07:04:40;102611.06;;;23.01;31.39
56518;BME280;42419;48.760;2.322;2023-01-25T07:07:07;102597.72;;;22.96;31.20
56518;BME280;42419;48.760;2.322;2023-01-25T07:09:33;102615.53;;;23.00;31.22
56518;BME280;42419;48.760;2.322;2023-01-25T07:11:58;102610.16;;;23.02;31.13
56518;BME280;42419;48.760;2.322;2023-01-25T07:14:23;102615.56;;;22.99;31.31
56518;BME280;42419;48.760;2.322;2023-01-25T07:16:49;102611.03;;;23.02;31.31
56518;BME280;42419;48.760;2.322;2023-01-25T07:19:14;102605.81;;;22.95;31.27
56518;BME280;42419;48.760;2.322;2023-01-25T07:21:39;102617.22;;;23.06;31.20
56518;BME280;42419;48.760;2.322;2023-01-25T07:24:05;102602.91;;;23.04;31.25
56518;BME280;42419;48.760;2.322;2023-01-25T07:26:31;102604.78;;;23.00;31.39
56518;BME280;42419;48.760;2.322;2023-01-25T07:28:58;102611.84;;;23.06;30.99
56518;BME280;42419;48.760;2.322;2023-01-25T07:31:23;102617.00;;;23.15;31.45
56518;BME280;42419;48.760;2.322;2023-01-25T07:33:53;102620.53;;;23.17;31.39
56518;BME280;42419;48.760;2.322;2023-01-25T07:36:19;102604.69;;;23.06;31.27
56518;BME280;42419;48.760;2.322;2023-01-25T07:38:44;102557.72;;;22.84;31.60
56518;BME280;42419;48.760;2.322;2023-01-25T07:41:10;102616.00;;;23.20;31.33
56518;BME280;42419;48.760;2.322;2023-01-25T07:43:36;102618.66;;;23.22;31.75
56518;BME280;42419;48.760;2.322;2023-01-25T07:46:03;102610.56;;;23.23;31.79
56518;BME280;42419;48.760;2.322;2023-01-25T07:48:29;102613.25;;;23.23;31.74
56518;BME280;42419;48.760;2.322;2023-01-25T07:51:02;102618.63;;;23.23;31.60
56518;BME280;42419;48.760;2.322;2023-01-25T07:53:47;102615.03;;;23.24;31.64
56518;BME280;42419;48.760;2.322;2023-01-25T07:56:13;102605.38;;;23.14;31.61
56518;BME280;42419;48.760;2.322;2023-01-25T07:58:38;102617.78;;;23.21;31.43
56518;BME280;42419;48.760;2.322;2023-01-25T08:01:13;102604.50;;;23.14;31.11
56518;BME280;42419;48.760;2.322;2023-01-25T08:03:38;102610.66;;;23.19;30.95
56518;BME280;42419;48.760;2.322;2023-01-25T08:06:05;102613.34;;;23.19;31.05
56518;BME280;42419;48.760;2.322;2023-01-25T08:08:35;102610.69;;;23.16;31.11
56518;BME280;42419;48.760;2.322;2023-01-25T08:11:07;102616.13;;;23.14;31.06
56518;BME280;42419;48.760;2.322;2023-01-25T08:13:32;102608.16;;;23.10;31.14
56518;BME280;42419;48.760;2.322;2023-01-25T08:15:58;102613.47;;;23.13;31.26
56518;BME280;42419;48.760;2.322;2023-01-25T08:18:23;102620.63;;;23.14;30.97
56518;BME280;42419;48.760;2.322;2023-01-25T08:20:49;102611.66;;;23.13;30.80
56518;BME280;42419;48.760;2.322;2023-01-25T08:23:15;102603.84;;;23.03;30.85
56518;BME280;42419;48.760;2.322;2023-01-25T08:25:40;102617.13;;;23.10;30.78
56518;BME280;42419;48.760;2.322;2023-01-25T08:28:05;102587.97;;;22.92;30.45
56518;BME280;42419;48.760;2.322;2023-01-25T08:30:32;102588.75;;;22.97;30.70
56518;BME280;42419;48.760;2.322;2023-01-25T08:32:57;102617.16;;;23.07;30.64
56518;BME280;42419;48.760;2.322;2023-01-25T08:35:23;102598.53;;;23.00;30.80
56518;BME280;42419;48.760;2.322;2023-01-25T08:37:48;102614.44;;;23.10;30.25
56518;BME280;42419;48.760;2.322;2023-01-25T08:40:13;102594.06;;;23.00;30.30
56518;BME280;42419;48.760;2.322;2023-01-25T08:42:39;102609.09;;;23.09;30.47
56518;BME280;42419;48.760;2.322;2023-01-25T08:45:07;102609.00;;;23.12;30.59
56518;BME280;42419;48.760;2.322;2023-01-25T08:47:33;102602.81;;;23.08;30.26
56518;BME280;42419;48.760;2.322;2023-01-25T08:49:58;102603.59;;;23.13;30.16
56518;BME280;42419;48.760;2.322;2023-01-25T08:52:23;102597.34;;;23.13;30.16
56518;BME280;42419;48.760;2.322;2023-01-25T08:54:49;102597.25;;;23.16;30.18
56518;BME280;42419;48.760;2.322;2023-01-25T08:57:14;102612.47;;;23.17;30.46
56518;BME280;42419;48.760;2.322;2023-01-25T08:59:39;102599.03;;;23.17;29.88
56518;BME280;42419;48.760;2.322;2023-01-25T09:02:05;102584.91;;;23.09;30.15
56518;BME280;42419;48.760;2.322;2023-01-25T09:04:30;102598.09;;;23.19;30.19
56518;BME280;42419;48.760;2.322;2023-01-25T09:06:56;102591.88;;;23.16;29.81
56518;BME280;42419;48.760;2.322;2023-01-25T09:09:21;102591.84;;;23.19;29.60
56518;BME280;42419;48.760;2.322;2023-01-25T09:11:49;102579.41;;;23.13;29.60
56518;BME280;42419;48.760;2.322;2023-01-25T09:14:14;102590.06;;;23.18;29.46
56518;BME280;42419;48.760;2.322;2023-01-25T09:16:40;102596.34;;;23.17;29.60
56518;BME280;42419;48.760;2.322;2023-01-25T09:19:05;102599.13;;;23.14;29.42
56518;BME280;42419;48.760;2.322;2023-01-25T09:21:31;102600.91;;;23.15;29.47
56518;BME280;42419;48.760;2.322;2023-01-25T09:23:57;102588.44;;;23.11;29.58
56518;BME280;42419;48.760;2.322;2023-01-25T09:26:24;102566.22;;;23.03;29.27
56518;BME280;42419;48.760;2.322;2023-01-25T09:28:50;102592.78;;;23.16;29.46
56518;BME280;42419;48.760;2.322;2023-01-25T09:31:17;102524.53;;;22.85;29.63
56518;BME280;42419;48.760;2.322;2023-01-25T09:33:42;102526.41;;;22.83;29.34
56518;BME280;42419;48.760;2.322;2023-01-25T09:36:08;102588.25;;;23.20;29.69
56518;BME280;42419;48.760;2.322;2023-01-25T09:38:34;102580.22;;;23.17;29.70
56518;BME280;42419;48.760;2.322;2023-01-25T09:46:52;102575.66;;;23.22;29.41
56518;BME280;42419;48.760;2.322;2023-01-25T09:52:10;102585.47;;;23.24;29.69
56518;BME280;42419;48.760;2.322;2023-01-25T09:54:43;102589.06;;;23.23;29.81
56518;BME280;42419;48.760;2.322;2023-01-25T09:57:25;102580.03;;;23.26;29.23
56518;BME280;42419;48.760;2.322;2023-01-25T09:59:52;102587.16;;;23.28;29.64
56518;BME280;42419;48.760;2.322;2023-01-25T10:04:44;102593.34;;;23.32;29.47
56518;BME280;42419;48.760;2.322;2023-01-25T10:07:18;102588.00;;;23.31;29.54
56518;BME280;42419;48.760;2.322;2023-01-25T10:09:53;102593.34;;;23.32;29.44
56518;BME280;42419;48.760;2.322;2023-01-25T10:12:23;102591.56;;;23.33;29.65
56518;BME280;42419;48.760;2.322;2023-01-25T10:14:50;102595.94;;;23.35;29.59
56518;BME280;42419;48.760;2.322;2023-01-25T10:17:36;102571.09;;;23.25;29.51
56518;BME280;42419;48.760;2.322;2023-01-25T10:20:16;102591.47;;;23.36;29.79
56518;BME280;42419;48.760;2.322;2023-01-25T10:23:08;102588.66;;;23.40;29.48
56518;BME280;42419;48.760;2.322;2023-01-25T10:25:45;102574.63;;;23.29;29.87
56518;BME280;42419;48.760;2.322;2023-01-25T10:31:15;102593.06;;;23.43;29.55
56518;BME280;42419;48.760;2.322;2023-01-25T10:33:43;102587.66;;;23.44;29.75
56518;BME280;42419;48.760;2.322;2023-01-25T10:36:14;102585.97;;;23.42;29.97
56518;BME280;42419;48.760;2.322;2023-01-25T10:38:42;102580.56;;;23.42;29.66
56518;BME280;42419;48.760;2.322;2023-01-25T10:41:15;102591.13;;;23.49;29.56
56518;BME280;42419;48.760;2.322;2023-01-25T10:43:42;102586.66;;;23.50;29.70
56518;BME280;42419;48.760;2.322;2023-01-25T10:46:37;102585.66;;;23.52;29.68
56518;BME280;42419;48.760;2.322;2023-01-25T10:51:52;102581.16;;;23.54;29.61
56518;BME280;42419;48.760;2.322;2023-01-25T10:54:21;102587.34;;;23.56;29.84
56518;BME280;42419;48.760;2.322;2023-01-25T10:56:46;102581.06;;;23.57;29.49
56518;BME280;42419;48.760;2.322;2023-01-25T10:59:23;102564.16;;;23.52;29.62
56518;BME280;42419;48.760;2.322;2023-01-25T11:01:51;102557.97;;;23.50;29.59
56518;BME280;42419;48.760;2.322;2023-01-25T11:06:52;102561.34;;;23.58;29.75
56518;BME280;42419;48.760;2.322;2023-01-25T11:11:57;102555.88;;;23.61;29.76
56518;BME280;42419;48.760;2.322;2023-01-25T11:14:25;102553.16;;;23.63;29.91
56518;BME280;42419;48.760;2.322;2023-01-25T11:16:51;102545.16;;;23.60;29.55
56518;BME280;42419;48.760;2.322;2023-01-25T11:19:27;102541.59;;;23.59;29.49
56518;BME280;42419;48.760;2.322;2023-01-25T11:21:54;102550.53;;;23.60;29.52
56518;BME280;42419;48.760;2.322;2023-01-25T11:24:25;102545.16;;;23.60;29.14
56518;BME280;42419;48.760;2.322;2023-01-25T11:27:10;102530.97;;;23.53;28.88
56518;BME280;42419;48.760;2.322;2023-01-25T11:29:36;102531.75;;;23.58;29.63
56518;BME280;42419;48.760;2.322;2023-01-25T11:32:01;102531.84;;;23.55;29.41
56518;BME280;42419;48.760;2.322;2023-01-25T11:34:28;102523.78;;;23.55;29.67
56518;BME280;42419;48.760;2.322;2023-01-25T11:37:03;102521.03;;;23.57;29.63
56518;BME280;42419;48.760;2.322;2023-01-25T11:40:01;102513.91;;;23.56;29.79
56518;BME280;42419;48.760;2.322;2023-01-25T11:42:54;102515.72;;;23.55;29.84
56518;BME280;42419;48.760;2.322;2023-01-25T11:45:39;102504.94;;;23.55;29.69
56518;BME280;42419;48.760;2.322;2023-01-25T11:51:03;102495.09;;;23.56;29.59
56518;BME280;42419;48.760;2.322;2023-01-25T12:02:14;102468.25;;;23.53;30.25
56518;BME280;42419;48.760;2.322;2023-01-25T12:04:59;102453.91;;;23.54;30.54
56518;BME280;42419;48.760;2.322;2023-01-25T12:10:22;102439.41;;;23.59;31.41
56518;BME280;42419;48.760;2.322;2023-01-25T12:15:47;102416.91;;;23.62;32.24
56518;BME280;42419;48.760;2.322;2023-01-25T12:21:02;102387.59;;;23.53;32.39
56518;BME280;42419;48.760;2.322;2023-01-25T12:26:27;102391.81;;;23.61;33.04
56518;BME280;42419;48.760;2.322;2023-01-25T12:29:39;102389.97;;;23.65;33.19
56518;BME280;42419;48.760;2.322;2023-01-25T12:31:46;102371.41;;;23.56;33.45
56518;BME280;42419;48.760;2.322;2023-01-25T12:34:20;102354.38;;;23.55;33.67
56518;BME280;42419;48.760;2.322;2023-01-25T12:36:47;102370.16;;;23.67;34.09
56518;BME280;42419;48.760;2.322;2023-01-25T12:39:20;102332.28;;;23.44;34.81
56518;BME280;42419;48.760;2.322;2023-01-25T12:42:14;102367.47;;;23.67;34.79
56518;BME280;42419;48.760;2.322;2023-01-25T12:44:50;102362.13;;;23.66;34.64
56518;BME280;42419;48.760;2.322;2023-01-25T12:50:22;102354.13;;;23.64;33.96
56518;BME280;42419;48.760;2.322;2023-01-25T12:52:54;102342.47;;;23.64;33.72
56518;BME280;42419;48.760;2.322;2023-01-25T12:55:22;102340.59;;;23.66;33.37
56518;BME280;42419;48.760;2.322;2023-01-25T13:00:52;102330.72;;;23.66;33.35
56518;BME280;42419;48.760;2.322;2023-01-25T13:06:27;102308.41;;;23.64;33.13
56518;BME280;42419;48.760;2.322;2023-01-25T13:09:00;102309.31;;;23.63;33.02
56518;BME280;42419;48.760;2.322;2023-01-25T13:11:37;102308.47;;;23.61;32.75
56518;BME280;42419;48.760;2.322;2023-01-25T13:16:44;102296.78;;;23.62;32.54
56518;BME280;42419;48.760;2.322;2023-01-25T13:21:53;102287.06;;;23.58;32.25
56518;BME280;42419;48.760;2.322;2023-01-25T13:24:32;102283.47;;;23.58;32.15
56518;BME280;42419;48.760;2.322;2023-01-25T13:27:01;102282.66;;;23.56;32.11
56518;BME280;42419;48.760;2.322;2023-01-25T13:31:54;102278.09;;;23.58;31.55
56518;BME280;42419;48.760;2.322;2023-01-25T13:44:47;102268.13;;;23.61;31.51
56518;BME280;42419;48.760;2.322;2023-01-25T13:47:21;102278.00;;;23.61;31.84
56518;BME280;42419;48.760;2.322;2023-01-25T13:49:53;102269.09;;;23.60;32.26
56518;BME280;42419;48.760;2.322;2023-01-25T13:52:21;102271.66;;;23.63;32.50
56518;BME280;42419;48.760;2.322;2023-01-25T13:54:48;102273.47;;;23.63;32.10
56518;BME280;42419;48.760;2.322;2023-01-25T13:57:27;102242.59;;;23.47;32.22
56518;BME280;42419;48.760;2.322;2023-01-25T14:00:05;102264.63;;;23.59;31.73
56518;BME280;42419;48.760;2.322;2023-01-25T14:02:32;102257.47;;;23.58;31.87
56518;BME280;42419;48.760;2.322;2023-01-25T14:04:59;102239.84;;;23.48;31.91
56518;BME280;42419;48.760;2.322;2023-01-25T14:07:32;102254.81;;;23.57;31.73
56518;BME280;42419;48.760;2.322;2023-01-25T14:10:07;102251.34;;;23.53;31.64
56518;BME280;42419;48.760;2.322;2023-01-25T14:12:39;102247.78;;;23.53;31.84
56518;BME280;42419;48.760;2.322;2023-01-25T14:18:17;102252.28;;;23.52;33.42
56518;BME280;42419;48.760;2.322;2023-01-25T14:20:45;102227.63;;;23.38;33.76
56518;BME280;42419;48.760;2.322;2023-01-25T14:23:25;102244.19;;;23.52;35.07
56518;BME280;42419;48.760;2.322;2023-01-25T14:25:52;102248.75;;;23.50;34.21
56518;BME280;42419;48.760;2.322;2023-01-25T14:28:19;102246.06;;;23.50;33.98